Time;durP1;ratioP1;P1;durP2;ratioP2;P2;SDS_P1;SDS_P2;PMS_P1;PMS_P2;Temp;Humidity;BMP_temperature;BMP_pressure;BME280_temperature;BME280_humidity;BME280_pressure;Samples;Min_cycle;Max_cycle;Signal;HPM_P1;HPM_P2
2021/03/25 00:01:19;;;;;;;5.18;4.13;;;12.30;73.00;;;;;;5112286;28;20096;-40
2021/03/25 00:03:47;;;;;;;6.35;4.13;;;12.30;73.00;;;;;;5112774;28;20455;-39
2021/03/25 00:06:13;;;;;;;4.80;3.72;;;12.30;73.00;;;;;;5111246;28;20040;-37
2021/03/25 00:08:39;;;;;;;4.43;3.60;;;12.30;73.00;;;;;;5110660;28;20090;-42
2021/03/25 00:11:05;;;;;;;5.38;4.20;;;12.30;73.00;;;;;;5112808;28;20496;-44
2021/03/25 00:13:31;;;;;;;5.78;3.75;;;12.30;73.00;;;;;;5111682;28;20108;-45
2021/03/25 00:15:57;;;;;;;4.68;3.75;;;12.30;73.00;;;;;;5111705;28;20470;-45
2021/03/25 00:18:22;;;;;;;6.18;4.43;;;12.30;73.00;;;;;;5116060;28;20056;-41
2021/03/25 00:20:49;;;;;;;5.95;3.65;;;12.30;73.00;;;;;;5115955;28;20100;-46
2021/03/25 00:23:18;;;;;;;4.63;3.55;;;12.30;73.00;;;;;;5115659;28;20052;-46
2021/03/25 00:25:45;;;;;;;4.78;3.80;;;12.30;73.00;;;;;;5115899;28;20047;-44
2021/03/25 00:28:13;;;;;;;4.95;3.80;;;12.30;73.00;;;;;;5115255;28;20058;-43
2021/03/25 00:30:39;;;;;;;5.22;3.90;;;12.30;73.10;;;;;;5115649;28;20139;-45
2021/03/25 00:33:08;;;;;;;5.78;4.45;;;12.30;73.10;;;;;;5115540;27;20039;-44
2021/03/25 00:35:34;;;;;;;6.30;3.70;;;12.30;73.10;;;;;;5114853;28;20048;-39
2021/03/25 00:38:01;;;;;;;7.07;4.10;;;12.30;73.00;;;;;;5108850;28;20043;-42
2021/03/25 00:40:27;;;;;;;4.32;3.75;;;12.30;73.00;;;;;;5115713;28;20112;-42
2021/03/25 00:42:53;;;;;;;5.00;3.72;;;12.30;73.10;;;;;;5115628;28;20039;-45
2021/03/25 00:45:31;;;;;;;6.53;4.68;;;12.30;73.10;;;;;;5115548;28;20392;-44
2021/03/25 00:47:57;;;;;;;4.55;4.03;;;12.20;73.00;;;;;;5116149;28;20048;-43
2021/03/25 00:50:27;;;;;;;5.38;4.35;;;12.20;73.00;;;;;;5114897;28;20053;-45
2021/03/25 00:52:53;;;;;;;5.47;3.78;;;12.30;73.10;;;;;;5116012;28;20070;-44
2021/03/25 00:55:20;;;;;;;5.00;3.90;;;12.30;73.10;;;;;;5116033;28;20047;-44
2021/03/25 00:57:46;;;;;;;5.15;3.90;;;12.30;73.10;;;;;;5113536;28;20044;-43
2021/03/25 01:00:19;;;;;;;5.90;4.32;;;12.30;73.70;;;;;;5115362;28;20048;-45
2021/03/25 01:02:44;;;;;;;7.10;4.22;;;12.20;73.10;;;;;;5113359;28;20484;-47
2021/03/25 01:05:11;;;;;;;5.45;4.18;;;12.30;73.10;;;;;;5114159;28;20100;-40
2021/03/25 01:07:37;;;;;;;4.35;3.95;;;12.30;73.20;;;;;;5115439;28;20044;-43
2021/03/25 01:10:10;;;;;;;5.18;4.30;;;12.30;73.10;;;;;;5115104;28;20108;-42
2021/03/25 01:12:36;;;;;;;5.13;3.78;;;12.20;73.10;;;;;;5114664;28;20092;-41
2021/03/25 01:15:04;;;;;;;5.18;4.20;;;12.20;73.00;;;;;;5115422;27;20458;-41
2021/03/25 01:17:29;;;;;;;4.88;4.20;;;12.20;73.00;;;;;;5115170;27;20415;-43
2021/03/25 01:19:55;;;;;;;4.43;3.88;;;12.30;73.10;;;;;;5113416;28;20059;-38
2021/03/25 01:22:21;;;;;;;6.35;4.30;;;12.20;73.00;;;;;;5114684;28;20046;-43
2021/03/25 01:24:46;;;;;;;5.35;4.45;;;12.20;73.10;;;;;;5115264;28;20039;-42
2021/03/25 01:27:12;;;;;;;4.68;3.70;;;12.20;73.10;;;;;;5114906;28;20548;-41
2021/03/25 01:29:38;;;;;;;5.00;4.07;;;12.20;73.10;;;;;;5114078;28;20070;-41
2021/03/25 01:32:04;;;;;;;5.40;4.10;;;12.20;73.10;;;;;;5114656;28;20055;-39
2021/03/25 01:34:29;;;;;;;5.88;3.88;;;12.30;73.10;;;;;;5114492;28;20051;-41
2021/03/25 01:36:55;;;;;;;5.25;3.92;;;12.20;73.10;;;;;;5114992;28;20048;-43
2021/03/25 01:39:21;;;;;;;5.78;4.22;;;12.20;73.10;;;;;;5114975;28;20062;-42
2021/03/25 01:41:46;;;;;;;6.80;4.03;;;12.20;73.10;;;;;;5114696;28;20054;-42
2021/03/25 01:44:30;;;;;;;4.95;3.97;;;12.20;73.10;;;;;;5114575;28;20046;-40
2021/03/25 01:46:56;;;;;;;5.07;4.00;;;12.20;73.10;;;;;;5114372;28;20051;-41
2021/03/25 01:49:22;;;;;;;4.75;3.83;;;12.20;73.10;;;;;;5112526;28;20059;-43
2021/03/25 01:52:00;;;;;;;5.57;4.63;;;12.20;73.10;;;;;;5114755;28;20476;-42
2021/03/25 01:54:59;;;;;;;5.45;4.13;;;12.20;73.10;;;;;;5112774;28;20217;-45
2021/03/25 01:58:02;;;;;;;5.68;4.30;;;12.20;73.10;;;;;;5110975;28;20095;-41
2021/03/25 02:01:02;;;;;;;5.07;3.95;;;12.20;73.10;;;;;;5112788;28;20088;-43
2021/03/25 02:03:40;;;;;;;5.70;3.92;;;12.20;73.10;;;;;;5112293;28;20048;-43
2021/03/25 02:06:09;;;;;;;5.63;4.30;;;12.20;73.10;;;;;;5112059;28;20131;-42
2021/03/25 02:08:52;;;;;;;5.90;4.40;;;12.20;73.10;;;;;;5114494;28;20048;-45
2021/03/25 02:11:29;;;;;;;5.43;4.20;;;12.20;73.10;;;;;;5113443;28;20044;-41
2021/03/25 02:14:15;;;;;;;5.72;4.35;;;12.20;73.10;;;;;;5114270;28;20416;-37
2021/03/25 02:16:48;;;;;;;4.80;3.85;;;12.20;73.10;;;;;;5111721;28;20122;-39
2021/03/25 02:19:36;;;;;;;4.75;3.90;;;12.20;73.20;;;;;;5113393;28;20047;-43
2021/03/25 02:22:33;;;;;;;6.32;4.20;;;12.20;73.20;;;;;;5104941;28;20058;-39
2021/03/25 02:25:09;;;;;;;5.75;4.30;;;12.20;73.20;;;;;;5113844;28;20073;-41
2021/03/25 02:27:47;;;;;;;6.00;4.50;;;12.20;73.20;;;;;;5113559;28;20523;-38
2021/03/25 02:30:44;;;;;;;7.57;4.68;;;12.20;73.20;;;;;;5112804;28;20055;-40
2021/03/25 02:33:14;;;;;;;5.35;4.32;;;12.20;73.20;;;;;;5050877;28;20156;-42
2021/03/25 02:36:03;;;;;;;5.32;4.07;;;12.20;73.20;;;;;;5046997;28;20051;-43
2021/03/25 02:38:41;;;;;;;5.20;4.20;;;12.20;73.20;;;;;;5049473;28;20044;-41
2021/03/25 02:41:15;;;;;;;4.97;3.83;;;12.20;73.20;;;;;;5048691;28;20082;-43
2021/03/25 02:43:57;;;;;;;6.13;4.72;;;12.20;73.20;;;;;;5049867;28;20075;-41
2021/03/25 02:46:36;;;;;;;6.90;4.82;;;12.20;73.20;;;;;;5050894;28;20509;-41
2021/03/25 02:49:07;;;;;;;5.95;4.88;;;12.20;73.20;;;;;;5047340;28;20052;-41
2021/03/25 02:52:06;;;;;;;5.80;4.38;;;12.20;73.30;;;;;;5050974;28;20144;-40
2021/03/25 02:54:32;;;;;;;5.07;4.10;;;12.20;73.20;;;;;;4991098;28;20054;-41
2021/03/25 02:57:04;;;;;;;5.40;4.60;;;12.20;73.20;;;;;;4990679;28;20594;-44
2021/03/25 02:59:35;;;;;;;6.15;4.07;;;12.20;73.20;;;;;;4991271;28;20078;-41
2021/03/25 03:02:34;;;;;;;6.45;4.55;;;12.20;73.30;;;;;;4988959;28;20117;-41
2021/03/25 03:05:26;;;;;;;5.78;4.40;;;12.20;73.20;;;;;;4989549;28;20046;-43
2021/03/25 03:08:16;;;;;;;6.07;4.57;;;12.20;73.20;;;;;;4990434;28;20198;-41
2021/03/25 03:11:06;;;;;;;6.65;4.63;;;12.20;73.20;;;;;;5036921;28;20049;-42
2021/03/25 03:13:37;;;;;;;7.72;4.53;;;12.20;73.20;;;;;;5048184;28;20107;-41
2021/03/25 03:16:10;;;;;;;6.40;4.63;;;12.20;73.30;;;;;;5048450;28;20059;-38
2021/03/25 03:18:55;;;;;;;6.97;4.88;;;12.20;73.20;;;;;;5048812;28;20429;-40
2021/03/25 03:21:26;;;;;;;6.32;4.95;;;12.20;73.20;;;;;;5046904;28;20060;-40
2021/03/25 03:23:52;;;;;;;5.80;4.43;;;12.20;73.30;;;;;;5048762;28;20044;-38
2021/03/25 03:26:29;;;;;;;5.50;4.50;;;12.20;73.20;;;;;;5049343;28;20040;-40
2021/03/25 03:29:04;;;;;;;6.68;5.03;;;12.20;73.30;;;;;;5049306;28;20051;-45
2021/03/25 03:31:52;;;;;;;5.68;4.70;;;12.20;73.30;;;;;;5076274;28;20512;-40
2021/03/25 03:34:27;;;;;;;5.28;4.47;;;12.20;73.90;;;;;;5109540;28;20048;-43
2021/03/25 03:36:57;;;;;;;5.32;4.63;;;12.20;73.90;;;;;;5109376;28;20407;-45
2021/03/25 03:39:25;;;;;;;7.25;4.70;;;12.20;73.30;;;;;;5112634;28;20048;-40
2021/03/25 03:41:58;;;;;;;6.97;5.22;;;12.10;73.20;;;;;;5112094;28;20035;-44
2021/03/25 03:44:30;;;;;;;5.68;4.75;;;12.10;73.20;;;;;;5112992;28;20105;-45
2021/03/25 03:46:58;;;;;;;7.03;4.80;;;12.20;73.30;;;;;;5112459;28;20405;-40
2021/03/25 03:49:37;;;;;;;5.75;4.50;;;12.10;73.20;;;;;;5111535;28;20465;-45
2021/03/25 03:52:06;;;;;;;5.93;4.68;;;12.20;73.30;;;;;;5111310;28;20127;-40
2021/03/25 03:54:33;;;;;;;5.82;4.75;;;12.20;73.30;;;;;;5110250;28;20072;-46
2021/03/25 03:57:08;;;;;;;5.00;4.50;;;12.20;73.30;;;;;;5111725;28;20036;-45
2021/03/25 03:59:56;;;;;;;5.50;4.47;;;12.20;73.30;;;;;;5110122;28;20550;-43
2021/03/25 04:02:37;;;;;;;6.15;4.65;;;12.10;73.20;;;;;;5111195;28;20073;-42
2021/03/25 04:05:18;;;;;;;5.97;4.82;;;12.10;73.20;;;;;;5111795;28;20044;-43
2021/03/25 04:07:48;;;;;;;6.55;5.05;;;12.10;73.20;;;;;;5111022;28;20048;-45
2021/03/25 04:10:28;;;;;;;8.30;5.32;;;12.10;73.30;;;;;;5109673;28;20138;-44
2021/03/25 04:12:57;;;;;;;7.00;4.75;;;12.10;73.30;;;;;;5110556;28;20039;-44
2021/03/25 04:15:29;;;;;;;5.95;5.07;;;12.10;73.20;;;;;;5112404;28;20432;-40
2021/03/25 04:18:19;;;;;;;5.88;5.18;;;12.10;73.90;;;;;;5109428;28;20050;-43
2021/03/25 04:20:50;;;;;;;7.95;5.68;;;12.10;73.20;;;;;;5111764;28;20469;-43
2021/03/25 04:23:20;;;;;;;6.65;4.85;;;12.10;73.30;;;;;;5112242;28;20119;-44
2021/03/25 04:25:56;;;;;;;8.02;5.45;;;12.10;73.30;;;;;;5109887;28;20506;-43
2021/03/25 04:28:32;;;;;;;7.50;5.40;;;12.10;73.30;;;;;;5111963;28;20047;-44
2021/03/25 04:30:58;;;;;;;;;;;12.10;73.30;;;;;;5110976;28;20047;-45
2021/03/25 04:33:24;;;;;;;;;;;12.10;73.30;;;;;;5111867;28;19920;-48
2021/03/25 04:35:51;;;;;;;6.35;5.13;;;12.10;73.30;;;;;;5109488;28;19920;-40
2021/03/25 04:38:24;;;;;;;7.20;5.05;;;12.10;73.30;;;;;;5111557;28;20047;-40
2021/03/25 04:40:54;;;;;;;7.60;5.30;;;12.10;73.30;;;;;;5108863;28;20472;-44
2021/03/25 04:43:22;;;;;;;7.07;4.60;;;12.10;73.30;;;;;;5112219;28;20058;-42
2021/03/25 04:45:56;;;;;;;7.75;5.15;;;12.10;73.30;;;;;;5112273;28;20450;-41
2021/03/25 04:48:25;;;;;;;7.67;5.83;;;12.10;73.30;;;;;;5110881;28;20052;-41
2021/03/25 04:51:08;;;;;;;7.60;5.20;;;12.10;73.30;;;;;;5111069;28;20046;-42
2021/03/25 04:53:37;;;;;;;7.57;5.55;;;12.10;73.30;;;;;;5109716;28;20043;-40
2021/03/25 04:56:09;;;;;;;11.65;6.07;;;12.10;73.30;;;;;;5111304;28;20046;-41
2021/03/25 04:58:38;;;;;;;6.72;5.20;;;12.10;73.30;;;;;;5109614;28;20040;-40
2021/03/25 05:01:16;;;;;;;8.27;5.50;;;12.10;73.30;;;;;;5112056;28;20581;-43
2021/03/25 05:03:43;;;;;;;6.70;5.63;;;12.10;73.30;;;;;;5111351;28;20564;-44
2021/03/25 05:06:28;;;;;;;8.07;5.40;;;12.10;73.40;;;;;;5115927;28;20074;-44
2021/03/25 05:08:55;;;;;;;6.75;5.53;;;12.10;73.40;;;;;;5111697;28;20036;-42
2021/03/25 05:11:26;;;;;;;7.45;5.53;;;12.10;73.30;;;;;;5115345;28;20051;-47
2021/03/25 05:13:56;;;;;;;8.93;5.95;;;12.10;73.40;;;;;;5113194;28;20445;-41
2021/03/25 05:16:25;;;;;;;9.57;6.38;;;12.10;73.40;;;;;;5114596;28;20039;-42
2021/03/25 05:19:15;;;;;;;7.65;5.57;;;12.10;73.30;;;;;;5111819;28;20611;-41
2021/03/25 05:21:54;;;;;;;7.70;6.05;;;12.10;73.40;;;;;;5113195;28;20112;-40
2021/03/25 05:24:34;;;;;;;8.55;6.13;;;12.10;73.40;;;;;;5111859;28;20048;-41
2021/03/25 05:27:10;;;;;;;9.32;5.93;;;12.10;73.30;;;;;;5114266;28;20085;-41
2021/03/25 05:29:39;;;;;;;7.82;5.90;;;12.10;73.40;;;;;;5111867;28;20431;-40
2021/03/25 05:32:06;;;;;;;8.20;6.25;;;12.10;73.40;;;;;;5114381;28;20063;-41
2021/03/25 05:34:33;;;;;;;9.90;6.57;;;12.00;73.30;;;;;;5112878;28;20048;-39
2021/03/25 05:36:59;;;;;;;7.38;6.03;;;12.10;73.40;;;;;;5115413;28;20487;-39
2021/03/25 05:39:26;;;;;;;8.55;5.93;;;12.10;73.40;;;;;;5113998;28;20281;-39
2021/03/25 05:42:27;;;;;;;8.45;6.07;;;12.10;73.40;;;;;;5115262;28;20039;-41
2021/03/25 05:45:32;;;;;;;7.93;5.72;;;12.10;73.40;;;;;;5111282;28;20040;-45
2021/03/25 05:48:21;;;;;;;9.07;5.90;;;12.10;73.40;;;;;;5112090;28;20050;-41
2021/03/25 05:50:55;;;;;;;7.85;6.18;;;12.00;73.30;;;;;;5114541;28;20051;-41
2021/03/25 05:53:33;;;;;;;8.43;6.20;;;12.00;73.30;;;;;;5114026;28;20040;-40
2021/03/25 05:56:09;;;;;;;8.63;6.20;;;12.00;73.30;;;;;;5113119;28;20051;-44
2021/03/25 05:59:08;;;;;;;8.80;6.40;;;12.00;73.30;;;;;;5112824;28;20047;-40
2021/03/25 06:02:00;;;;;;;8.45;6.65;;;11.90;73.30;;;;;;5111568;28;20043;-40
2021/03/25 06:04:32;;;;;;;10.82;7.55;;;12.00;73.40;;;;;;5113652;28;20492;-40
2021/03/25 06:07:16;;;;;;;10.75;6.43;;;12.00;73.30;;;;;;5114771;28;20043;-43
2021/03/25 06:10:06;;;;;;;8.65;6.50;;;12.00;73.40;;;;;;5111998;28;20047;-42
2021/03/25 06:12:57;;;;;;;10.07;6.93;;;12.00;73.30;;;;;;5111895;28;20100;-42
2021/03/25 06:15:40;;;;;;;10.68;6.88;;;12.00;73.40;;;;;;5113916;28;20514;-40
2021/03/25 06:18:09;;;;;;;9.20;6.50;;;12.00;73.40;;;;;;5114364;28;20066;-41
2021/03/25 06:21:11;;;;;;;9.68;6.57;;;12.00;73.40;;;;;;5114604;28;20054;-40
2021/03/25 06:23:50;;;;;;;10.40;6.88;;;12.00;73.40;;;;;;5114298;28;20557;-42
2021/03/25 06:26:15;;;;;;;9.60;6.82;;;12.00;73.40;;;;;;5114576;28;20044;-41
2021/03/25 06:28:48;;;;;;;10.38;6.88;;;12.00;73.40;;;;;;5114257;28;20054;-40
2021/03/25 06:31:22;;;;;;;10.40;6.50;;;12.00;73.40;;;;;;5113474;28;20052;-43
2021/03/25 06:34:14;;;;;;;8.65;6.75;;;12.00;73.40;;;;;;5114296;28;20459;-42
2021/03/25 06:37:01;;;;;;;9.88;7.03;;;12.00;73.50;;;;;;5114584;28;20047;-42
2021/03/25 06:39:49;;;;;;;10.02;7.68;;;12.00;73.50;;;;;;5113959;28;20054;-42
2021/03/25 06:42:44;;;;;;;10.32;7.18;;;12.00;73.50;;;;;;5113700;28;20043;-39
2021/03/25 06:45:23;;;;;;;10.73;6.82;;;12.00;73.50;;;;;;5112849;28;20048;-39
2021/03/25 06:48:10;;;;;;;8.77;6.65;;;12.00;73.50;;;;;;5114336;28;20047;-39
2021/03/25 06:50:39;;;;;;;10.10;7.03;;;12.00;73.50;;;;;;5114240;28;20051;-41
2021/03/25 06:53:32;;;;;;;10.73;7.00;;;12.00;73.50;;;;;;5112969;28;20036;-38
2021/03/25 06:56:05;;;;;;;9.25;6.60;;;12.00;73.50;;;;;;5111841;28;20075;-38
2021/03/25 06:58:46;;;;;;;10.95;7.07;;;12.00;73.50;;;;;;5111106;28;20446;-38
2021/03/25 07:01:24;;;;;;;10.23;7.57;;;12.00;73.50;;;;;;5113154;28;20040;-39
2021/03/25 07:03:56;;;;;;;9.98;7.53;;;12.00;73.60;;;;;;5113169;28;20500;-38
2021/03/25 07:06:26;;;;;;;9.55;6.32;;;12.00;73.60;;;;;;5113524;28;20411;-39
2021/03/25 07:08:55;;;;;;;9.35;7.15;;;12.00;73.60;;;;;;5112849;28;20050;-38
2021/03/25 07:11:22;;;;;;;11.18;7.45;;;12.00;73.60;;;;;;5113339;28;20040;-39
2021/03/25 07:13:57;;;;;;;12.88;7.60;;;12.00;73.60;;;;;;5112968;28;20047;-38
2021/03/25 07:16:24;;;;;;;10.65;7.28;;;12.00;73.60;;;;;;5111809;28;20050;-40
2021/03/25 07:19:00;;;;;;;11.52;7.82;;;12.00;73.60;;;;;;5113405;28;20113;-39
2021/03/25 07:21:40;;;;;;;11.88;7.38;;;12.00;73.60;;;;;;5113261;28;20400;-40
2021/03/25 07:24:23;;;;;;;11.27;7.28;;;12.00;73.60;;;;;;5111496;28;20047;-38
2021/03/25 07:26:56;;;;;;;10.43;7.65;;;12.00;73.60;;;;;;5111735;28;20051;-39
2021/03/25 07:29:34;;;;;;;12.25;8.13;;;12.00;73.60;;;;;;5112706;28;20078;-44
2021/03/25 07:32:13;;;;;;;10.70;7.35;;;12.00;73.60;;;;;;5111037;28;20050;-40
2021/03/25 07:34:48;;;;;;;9.93;7.38;;;12.00;73.60;;;;;;5111459;28;20036;-43
2021/03/25 07:37:17;;;;;;;11.63;8.38;;;12.00;73.60;;;;;;5111921;28;20109;-41
2021/03/25 07:39:49;;;;;;;10.77;7.53;;;12.00;73.60;;;;;;5112844;28;20051;-41
2021/03/25 07:42:36;;;;;;;11.95;7.80;;;12.00;73.60;;;;;;5110543;28;20043;-43
2021/03/25 07:45:23;;;;;;;15.30;8.60;;;12.00;73.60;;;;;;5109365;28;20051;-43
2021/03/25 07:47:51;;;;;;;12.00;8.07;;;12.00;73.60;;;;;;5112248;28;20108;-40
2021/03/25 07:50:35;;;;;;;10.43;7.45;;;12.00;73.60;;;;;;5113013;28;20126;-41
2021/03/25 07:53:16;;;;;;;10.57;6.78;;;12.10;73.70;;;;;;5112096;28;20050;-43
2021/03/25 07:55:42;;;;;;;11.38;7.03;;;12.00;73.60;;;;;;5113299;28;20453;-39
2021/03/25 07:58:16;;;;;;;10.13;7.43;;;12.00;73.60;;;;;;5112813;28;20044;-43
2021/03/25 08:00:43;;;;;;;9.57;7.47;;;12.00;73.60;;;;;;5112151;28;20044;-40
2021/03/25 08:03:18;;;;;;;12.93;7.78;;;12.00;73.60;;;;;;5112889;28;20052;-41
2021/03/25 08:05:46;;;;;;;10.45;7.47;;;12.00;73.70;;;;;;5113151;28;20104;-42
2021/03/25 08:08:35;;;;;;;13.50;7.97;;;12.00;73.70;;;;;;5112266;28;20048;-44
2021/03/25 08:11:17;;;;;;;9.85;7.43;;;12.00;73.70;;;;;;5112825;28;20043;-39
2021/03/25 08:13:53;;;;;;;11.50;8.43;;;12.10;73.80;;;;;;5112817;28;20052;-40
2021/03/25 08:16:20;;;;;;;11.38;7.68;;;12.10;73.70;;;;;;5113148;28;20118;-40
2021/03/25 08:19:21;;;;;;;11.02;7.43;;;12.10;73.70;;;;;;5112614;28;20044;-40
2021/03/25 08:21:52;;;;;;;10.50;7.20;;;12.10;73.80;;;;;;5110246;28;20051;-39
2021/03/25 08:24:40;;;;;;;14.43;8.73;;;12.10;73.80;;;;;;5109992;28;20406;-38
2021/03/25 08:27:28;;;;;;;10.60;6.60;;;12.10;73.70;;;;;;5110929;28;20051;-39
2021/03/25 08:30:27;;;;;;;10.93;7.35;;;12.10;73.80;;;;;;5110307;28;20130;-43
2021/03/25 08:33:08;;;;;;;10.25;7.20;;;12.10;73.70;;;;;;5111595;28;20097;-41
2021/03/25 08:36:02;;;;;;;9.73;6.80;;;12.10;73.70;;;;;;5112464;28;20050;-41
2021/03/25 08:39:02;;;;;;;10.95;7.55;;;12.10;73.70;;;;;;5113308;28;20442;-39
2021/03/25 08:41:42;;;;;;;11.32;7.40;;;12.10;73.70;;;;;;5115215;28;20092;-40
2021/03/25 08:44:33;;;;;;;11.57;7.45;;;12.10;73.70;;;;;;5113975;28;20381;-38
2021/03/25 08:47:12;;;;;;;11.68;7.07;;;12.10;73.70;;;;;;5113747;28;20114;-40
2021/03/25 08:50:01;;;;;;;8.77;6.90;;;12.10;73.70;;;;;;5114407;28;20044;-39
2021/03/25 08:52:30;;;;;;;9.75;7.07;;;12.20;73.70;;;;;;5115300;28;20082;-38
2021/03/25 08:55:28;;;;;;;11.35;7.13;;;12.20;73.70;;;;;;5116471;28;20043;-41
2021/03/25 08:58:11;;;;;;;11.32;7.70;;;12.20;73.70;;;;;;5114079;28;20655;-37
2021/03/25 09:00:40;;;;;;;10.23;6.85;;;12.20;73.70;;;;;;5113634;28;20423;-40
2021/03/25 09:03:17;;;;;;;10.68;6.85;;;12.20;73.70;;;;;;5115659;28;20044;-41
2021/03/25 09:06:05;;;;;;;9.70;6.93;;;12.20;73.70;;;;;;5113845;28;20094;-39
2021/03/25 09:08:34;;;;;;;8.63;6.93;;;12.20;73.70;;;;;;5113251;28;20047;-38
2021/03/25 09:11:03;;;;;;;8.75;6.57;;;12.30;73.70;;;;;;5115658;28;20051;-38
2021/03/25 09:13:31;;;;;;;9.45;6.78;;;12.20;73.60;;;;;;5115144;28;20071;-40
2021/03/25 09:16:05;;;;;;;8.35;5.85;;;12.30;73.70;;;;;;5114965;28;20082;-39
2021/03/25 09:18:31;;;;;;;10.45;7.20;;;12.30;73.70;;;;;;5114060;28;20116;-42
2021/03/25 09:21:08;;;;;;;9.15;6.40;;;12.30;73.60;;;;;;5114905;28;20051;-40
2021/03/25 09:23:34;;;;;;;9.13;6.72;;;12.30;73.60;;;;;;5114254;28;20092;-39
2021/03/25 09:26:10;;;;;;;10.02;6.95;;;12.30;73.60;;;;;;5115615;28;20092;-43
2021/03/25 09:29:05;;;;;;;9.68;7.30;;;12.30;73.60;;;;;;5115069;28;20069;-39
2021/03/25 09:32:11;;;;;;;9.68;6.63;;;12.30;73.50;;;;;;5113123;28;20083;-42
2021/03/25 09:34:47;;;;;;;9.23;6.50;;;12.30;73.50;;;;;;5106256;28;20512;-42
2021/03/25 09:37:23;;;;;;;8.43;6.07;;;12.40;73.50;;;;;;5113144;28;20079;-42
2021/03/25 09:40:12;;;;;;;9.18;6.57;;;12.30;73.40;;;;;;5113061;28;20044;-40
2021/03/25 09:42:40;;;;;;;9.57;6.38;;;12.40;73.40;;;;;;5114031;28;20052;-40
2021/03/25 09:45:33;;;;;;;9.15;6.97;;;12.40;73.40;;;;;;5112376;28;20055;-40
2021/03/25 09:48:01;;;;;;;8.77;5.68;;;12.40;73.30;;;;;;5112342;28;20069;-40
2021/03/25 09:50:28;;;;;;;8.90;5.90;;;12.40;73.30;;;;;;5113277;28;20073;-37
2021/03/25 09:53:11;;;;;;;9.93;6.70;;;12.40;73.30;;;;;;5113996;28;20044;-38
2021/03/25 09:55:39;;;;;;;7.55;5.50;;;12.40;73.30;;;;;;5112494;28;20044;-35
2021/03/25 09:58:45;;;;;;;8.43;6.25;;;12.50;73.30;;;;;;5112796;28;20036;-40
2021/03/25 10:01:38;;;;;;;7.50;5.72;;;12.50;73.30;;;;;;5114228;28;20035;-37
2021/03/25 10:04:38;;;;;;;7.63;5.85;;;12.50;73.20;;;;;;5114635;28;20035;-38
2021/03/25 10:07:27;;;;;;;8.50;6.03;;;12.50;73.20;;;;;;5114667;28;20052;-39
2021/03/25 10:09:57;;;;;;;8.50;5.70;;;12.50;73.20;;;;;;5052139;28;20135;-39
2021/03/25 10:13:06;;;;;;;8.00;5.30;;;12.50;73.10;;;;;;5051325;28;20049;-40
2021/03/25 10:15:39;;;;;;;7.10;4.60;;;12.50;73.10;;;;;;4991857;28;20057;-40
2021/03/25 10:18:16;;;;;;;9.18;6.28;;;12.50;73.10;;;;;;4992543;28;20061;-39
2021/03/25 10:21:08;;;;;;;6.63;5.13;;;12.60;73.10;;;;;;4992263;28;20050;-38
2021/03/25 10:23:49;;;;;;;6.93;5.03;;;12.60;73.10;;;;;;4992658;28;20045;-38
2021/03/25 10:26:33;;;;;;;7.25;5.13;;;12.60;73.10;;;;;;4992009;28;20049;-38
2021/03/25 10:29:05;;;;;;;9.55;6.20;;;12.60;73.00;;;;;;4991908;28;20141;-37
2021/03/25 10:31:43;;;;;;;7.57;5.55;;;12.60;73.00;;;;;;4992476;28;20137;-38
2021/03/25 10:34:18;;;;;;;6.80;4.57;;;12.60;72.90;;;;;;4991933;28;20050;-36
2021/03/25 10:37:18;;;;;;;7.70;5.70;;;12.60;72.90;;;;;;4991606;28;20054;-38
2021/03/25 10:39:45;;;;;;;6.68;4.97;;;12.60;72.90;;;;;;4991852;28;20074;-39
2021/03/25 10:42:18;;;;;;;8.25;5.50;;;12.60;72.90;;;;;;4991853;28;20089;-37
2021/03/25 10:44:44;;;;;;;6.32;4.85;;;12.60;72.90;;;;;;4992112;28;20133;-38
2021/03/25 10:47:21;;;;;;;6.65;4.93;;;12.60;72.80;;;;;;5040814;28;20166;-36
2021/03/25 10:49:59;;;;;;;7.72;5.00;;;12.70;72.90;;;;;;5070394;28;20064;-37
2021/03/25 10:52:35;;;;;;;7.43;5.05;;;12.70;72.80;;;;;;5090885;28;20040;-40
2021/03/25 10:55:24;;;;;;;7.13;4.82;;;12.70;72.80;;;;;;5113888;27;20549;-38
2021/03/25 10:57:51;;;;;;;6.40;5.03;;;12.70;72.80;;;;;;5111762;28;20043;-37
2021/03/25 11:00:29;;;;;;;7.07;5.20;;;12.70;72.80;;;;;;5114302;27;20052;-39
2021/03/25 11:02:55;;;;;;;6.65;4.93;;;12.70;72.70;;;;;;5113993;28;20119;-38
2021/03/25 11:05:27;;;;;;;5.90;4.30;;;12.70;72.70;;;;;;5112687;28;20073;-39
2021/03/25 11:08:01;;;;;;;6.32;4.50;;;12.70;72.70;;;;;;5112492;28;20113;-37
2021/03/25 11:10:28;;;;;;;5.63;4.10;;;12.70;72.70;;;;;;5113356;28;20051;-39
2021/03/25 11:13:17;;;;;;;7.07;5.10;;;12.80;72.70;;;;;;5112930;28;20492;-38
2021/03/25 11:15:46;;;;;;;6.05;4.68;;;12.80;72.70;;;;;;5113643;28;20054;-39
2021/03/25 11:18:40;;;;;;;5.50;4.05;;;12.80;72.70;;;;;;5113805;28;20519;-39
2021/03/25 11:21:07;;;;;;;5.30;4.32;;;12.80;72.70;;;;;;5111925;28;20484;-39
2021/03/25 11:23:33;;;;;;;6.32;4.72;;;12.80;72.60;;;;;;5113681;28;20044;-39
2021/03/25 11:26:04;;;;;;;5.53;4.25;;;12.80;72.60;;;;;;5113294;28;20051;-40
2021/03/25 11:28:35;;;;;;;4.93;4.07;;;12.80;72.60;;;;;;5112736;28;20116;-40
2021/03/25 11:31:21;;;;;;;4.97;4.07;;;12.90;72.60;;;;;;5113035;28;20126;-40
2021/03/25 11:33:48;;;;;;;4.82;3.92;;;12.80;72.50;;;;;;5112449;28;20048;-40
2021/03/25 11:36:30;;;;;;;4.40;3.88;;;12.80;72.50;;;;;;5112856;28;20162;-41
2021/03/25 11:38:56;;;;;;;5.53;4.30;;;12.90;72.50;;;;;;5113531;28;20503;-40
2021/03/25 11:41:21;;;;;;;5.65;4.00;;;12.90;72.50;;;;;;5112121;28;20044;-39
2021/03/25 11:43:54;;;;;;;5.32;4.15;;;12.90;72.50;;;;;;5112820;28;20046;-40
2021/03/25 11:46:45;;;;;;;4.75;3.90;;;12.90;72.50;;;;;;5111910;28;20120;-40
2021/03/25 11:49:17;;;;;;;7.25;4.28;;;12.90;72.40;;;;;;5112463;28;20492;-40
2021/03/25 11:52:00;;;;;;;5.30;4.20;;;12.90;72.40;;;;;;5112622;28;20408;-40
2021/03/25 11:54:34;;;;;;;4.60;3.63;;;12.90;72.40;;;;;;5113375;28;20409;-39
2021/03/25 11:57:27;;;;;;;4.88;3.75;;;12.90;72.40;;;;;;5112874;28;20135;-41
2021/03/25 12:00:13;;;;;;;5.20;3.80;;;12.90;72.30;;;;;;5113557;28;20096;-39
2021/03/25 12:02:41;;;;;;;6.43;3.72;;;12.90;73.00;;;;;;5113005;28;20047;-39
2021/03/25 12:05:41;;;;;;;4.85;3.65;;;12.90;72.30;;;;;;5112469;28;20063;-40
2021/03/25 12:08:13;;;;;;;4.78;3.70;;;12.90;72.30;;;;;;5050401;28;20061;-40
2021/03/25 12:10:39;;;;;;;4.80;3.58;;;12.90;72.30;;;;;;5050002;28;20497;-39
2021/03/25 12:13:06;;;;;;;4.35;3.45;;;12.90;72.30;;;;;;5051633;28;20135;-39
2021/03/25 12:15:32;;;;;;;4.28;3.38;;;12.90;72.30;;;;;;5054119;28;20091;-42
2021/03/25 12:18:01;;;;;;;4.68;3.47;;;12.90;72.30;;;;;;5054204;28;20057;-40
2021/03/25 12:20:37;;;;;;;4.97;3.65;;;12.90;72.20;;;;;;5053573;28;20053;-42
2021/03/25 12:23:17;;;;;;;5.10;3.67;;;13.00;72.30;;;;;;5053805;28;20071;-37
2021/03/25 12:25:44;;;;;;;5.80;3.75;;;12.90;72.20;;;;;;5053194;28;20053;-39
2021/03/25 12:28:10;;;;;;;4.05;3.42;;;13.00;72.30;;;;;;5054198;28;20076;-39
2021/03/25 12:30:37;;;;;;;4.65;3.28;;;13.00;72.30;;;;;;5053787;28;20060;-39
2021/03/25 12:33:03;;;;;;;5.10;3.50;;;12.90;72.20;;;;;;5053224;28;20497;-37
2021/03/25 12:35:29;;;;;;;5.88;3.80;;;13.00;72.30;;;;;;5053516;28;20064;-38
2021/03/25 12:37:55;;;;;;;38.55;24.15;;;13.00;72.30;;;;;;5036763;28;20133;-40
2021/03/25 12:40:23;;;;;;;43.15;26.27;;;13.00;72.20;;;;;;5053286;28;20513;-39
2021/03/25 12:42:50;;;;;;;36.92;25.00;;;13.00;72.30;;;;;;5063801;28;20051;-45
2021/03/25 12:45:35;;;;;;;46.55;27.75;;;13.10;72.20;;;;;;5116560;28;20043;-47
2021/03/25 12:48:01;;;;;;;48.05;27.60;;;13.20;72.10;;;;;;5114056;28;20054;-41
2021/03/25 12:50:27;;;;;;;48.90;28.70;;;13.20;71.90;;;;;;5116546;27;20043;-37
2021/03/25 12:52:53;;;;;;;45.50;27.33;;;13.30;72.00;;;;;;5116150;28;20115;-40
2021/03/25 12:55:20;;;;;;;42.22;27.60;;;13.30;71.90;;;;;;5115824;28;20102;-39
2021/03/25 12:57:48;;;;;;;40.63;27.10;;;13.30;71.90;;;;;;5116256;28;20051;-40
2021/03/25 13:00:39;;;;;;;43.72;27.05;;;13.30;71.80;;;;;;5116538;28;20039;-38
2021/03/25 13:03:05;;;;;;;40.47;27.02;;;13.30;71.80;;;;;;5116049;28;20047;-39
2021/03/25 13:05:31;;;;;;;39.90;25.77;;;13.30;71.80;;;;;;5115966;28;20031;-39
2021/03/25 13:07:57;;;;;;;43.58;25.52;;;13.30;71.80;;;;;;5115649;28;20054;-39
2021/03/25 13:10:29;;;;;;;37.40;25.27;;;13.30;71.80;;;;;;5115788;28;20051;-41
2021/03/25 13:12:58;;;;;;;39.35;25.42;;;13.30;71.80;;;;;;5116500;28;20062;-42
2021/03/25 13:15:24;;;;;;;37.85;24.70;;;13.30;71.80;;;;;;5116010;28;20047;-41
2021/03/25 13:17:51;;;;;;;36.85;23.75;;;13.30;71.80;;;;;;5115131;28;20043;-43
2021/03/25 13:20:20;;;;;;;35.17;23.60;;;13.30;71.80;;;;;;5116097;28;20048;-43
2021/03/25 13:22:46;;;;;;;36.50;24.90;;;13.30;71.80;;;;;;5115667;28;20040;-42
2021/03/25 13:25:17;;;;;;;35.63;23.92;;;13.30;71.80;;;;;;5114345;28;20079;-43
2021/03/25 13:27:42;;;;;;;34.78;23.05;;;13.30;71.80;;;;;;5115171;28;20043;-40